createdAt,value
2022-08-30T00:01:42.440Z,22.94
2022-08-30T00:03:46.462Z,22.92
2022-08-30T00:05:48.040Z,22.91
2022-08-30T00:07:49.359Z,22.91
2022-08-30T00:09:50.756Z,22.90
2022-08-30T00:11:52.218Z,22.90
2022-08-30T00:13:53.565Z,22.90
2022-08-30T00:15:54.983Z,22.89
2022-08-30T00:17:56.325Z,22.88
2022-08-30T00:19:57.644Z,22.88
2022-08-30T00:21:59.047Z,22.87
2022-08-30T00:24:00.635Z,22.85
2022-08-30T00:26:02.623Z,22.85
2022-08-30T00:28:04.112Z,22.90
2022-08-30T00:30:05.427Z,22.92
2022-08-30T00:32:06.813Z,22.86
2022-08-30T00:34:08.147Z,22.84
2022-08-30T00:36:09.499Z,22.83
2022-08-30T00:38:10.829Z,22.81
2022-08-30T00:40:12.306Z,22.82
2022-08-30T00:42:13.668Z,22.82
2022-08-30T00:44:15.158Z,22.81
2022-08-30T00:46:16.755Z,22.86
2022-08-30T00:48:18.832Z,22.87
2022-08-30T00:50:20.187Z,22.87
2022-08-30T00:52:21.504Z,22.87
2022-08-30T00:54:23.563Z,22.87
2022-08-30T00:56:27.710Z,22.86
2022-08-30T00:58:29.068Z,22.84
2022-08-30T01:00:30.378Z,22.84
2022-08-30T01:02:33.445Z,22.84
2022-08-30T01:04:34.922Z,22.82
2022-08-30T01:06:36.327Z,22.81
2022-08-30T01:08:38.689Z,22.81
2022-08-30T01:10:40.029Z,22.81
2022-08-30T01:12:41.352Z,22.80
2022-08-30T01:14:42.664Z,22.79
2022-08-30T01:16:44.042Z,22.79
2022-08-30T01:18:45.376Z,22.78
2022-08-30T01:20:47.268Z,22.78
2022-08-30T01:22:48.616Z,22.78
2022-08-30T01:24:49.950Z,22.78
2022-08-30T01:26:51.271Z,22.77
2022-08-30T01:28:52.669Z,22.77
2022-08-30T01:30:54.157Z,22.78
2022-08-30T01:32:55.602Z,22.80
2022-08-30T01:34:56.927Z,22.82
2022-08-30T01:36:58.283Z,22.79
2022-08-30T01:38:59.640Z,22.78
2022-08-30T01:41:01.060Z,22.78
2022-08-30T01:43:02.409Z,21.78
2022-08-30T01:45:04.191Z,22.77
2022-08-30T01:47:05.505Z,22.76
2022-08-30T01:49:06.845Z,22.76
2022-08-30T01:51:08.164Z,22.75
2022-08-30T01:53:09.479Z,22.75
2022-08-30T01:55:14.864Z,22.75
2022-08-30T01:57:16.230Z,22.73
2022-08-30T01:59:17.903Z,22.71
2022-08-30T02:01:19.856Z,22.71
2022-08-30T02:03:21.335Z,22.71
2022-08-30T02:05:23.167Z,22.69
2022-08-30T02:07:24.523Z,22.70
2022-08-30T02:09:25.836Z,22.69
2022-08-30T02:11:27.197Z,22.69
2022-08-30T02:13:28.515Z,22.69
2022-08-30T02:15:29.855Z,22.69
2022-08-30T02:17:34.302Z,22.66
2022-08-30T02:19:35.623Z,22.65
2022-08-30T02:21:36.967Z,22.63
2022-08-30T02:23:38.355Z,22.60
2022-08-30T02:25:40.999Z,22.60
2022-08-30T02:27:42.363Z,22.59
2022-08-30T02:29:44.176Z,22.58
2022-08-30T02:31:45.526Z,22.10
2022-08-30T02:33:46.844Z,22.56
2022-08-30T02:35:48.199Z,22.55
2022-08-30T02:37:49.577Z,22.54
2022-08-30T02:39:50.922Z,22.53
2022-08-30T02:41:52.367Z,22.52
2022-08-30T02:43:58.519Z,22.51
2022-08-30T02:46:01.169Z,22.50
2022-08-30T02:48:02.551Z,22.50
2022-08-30T02:50:03.918Z,22.49
2022-08-30T02:52:05.307Z,22.49
2022-08-30T02:54:06.622Z,22.50
2022-08-30T02:56:07.971Z,22.54
2022-08-30T02:58:10.558Z,22.59
2022-08-30T03:00:12.598Z,22.61
2022-08-30T03:02:13.915Z,22.61
2022-08-30T03:04:15.233Z,22.62
2022-08-30T03:06:16.539Z,22.63
2022-08-30T03:08:18.003Z,22.62
2022-08-30T03:10:19.324Z,22.63
2022-08-30T03:12:20.663Z,22.64
2022-08-30T03:14:22.095Z,22.61
2022-08-30T03:16:23.569Z,22.61
2022-08-30T03:18:25.064Z,22.59
2022-08-30T03:20:26.407Z,22.63
2022-08-30T03:22:27.760Z,22.62
2022-08-30T03:24:29.095Z,22.60
2022-08-30T03:26:31.316Z,22.63
2022-08-30T03:28:32.635Z,22.63
2022-08-30T03:30:34.020Z,22.64
2022-08-30T03:32:35.345Z,22.63
2022-08-30T03:34:36.668Z,22.64
2022-08-30T03:36:38.317Z,22.64
2022-08-30T03:38:39.635Z,22.64
2022-08-30T03:40:41.071Z,22.61
2022-08-30T03:42:43.320Z,22.61
2022-08-30T03:44:45.311Z,22.60
2022-08-30T03:46:46.672Z,22.60
2022-08-30T03:48:47.999Z,22.61
2022-08-30T03:50:49.397Z,22.60
2022-08-30T03:52:50.731Z,22.60
2022-08-30T03:54:52.079Z,22.60
2022-08-30T03:56:53.398Z,22.58
2022-08-30T03:58:54.704Z,22.59
2022-08-30T04:00:56.107Z,22.56
2022-08-30T04:02:57.506Z,22.52
2022-08-30T04:04:58.836Z,22.48
2022-08-30T04:07:00.191Z,22.46
2022-08-30T04:09:01.635Z,22.45
2022-08-30T04:11:02.988Z,22.44
2022-08-30T04:13:06.573Z,22.42
2022-08-30T04:15:09.486Z,22.42
2022-08-30T04:17:10.794Z,22.40
2022-08-30T04:19:12.207Z,22.39
2022-08-30T04:21:14.262Z,22.43
2022-08-30T04:23:15.788Z,22.47
2022-08-30T04:25:17.743Z,22.45
2022-08-30T04:27:20.464Z,22.44
2022-08-30T04:29:21.816Z,22.49
2022-08-30T04:31:23.190Z,22.49
2022-08-30T04:33:24.719Z,22.49
2022-08-30T04:35:26.106Z,22.50
2022-08-30T04:37:27.433Z,22.49
2022-08-30T04:39:28.792Z,22.48
2022-08-30T04:41:30.112Z,22.50
2022-08-30T04:43:31.435Z,22.51
2022-08-30T04:45:32.882Z,22.50
2022-08-30T04:47:34.293Z,22.52
2022-08-30T04:49:35.667Z,22.51
2022-08-30T04:53:38.290Z,22.50
2022-08-30T04:55:39.651Z,22.51
2022-08-30T04:57:40.963Z,22.51
2022-08-30T04:59:42.365Z,22.51
2022-08-30T05:01:45.274Z,22.50
2022-08-30T05:03:47.197Z,22.50
2022-08-30T05:05:48.567Z,22.51
2022-08-30T05:07:49.952Z,22.50
2022-08-30T05:09:51.288Z,22.50
2022-08-30T05:13:53.949Z,22.55
2022-08-30T05:15:55.362Z,22.54
2022-08-30T05:17:56.728Z,22.54
2022-08-30T05:19:58.091Z,22.55
2022-08-30T05:21:59.434Z,22.56
2022-08-30T05:24:00.738Z,22.51
2022-08-30T05:26:02.811Z,22.45
2022-08-30T05:28:04.167Z,22.42
2022-08-30T05:30:06.308Z,22.42
2022-08-30T05:32:07.699Z,22.39
2022-08-30T05:34:09.031Z,22.37
2022-08-30T05:36:10.339Z,22.35
2022-08-30T05:38:11.707Z,22.36
2022-08-30T05:40:13.292Z,22.38
2022-08-30T05:42:16.868Z,22.38
2022-08-30T05:44:18.281Z,22.37
2022-08-30T05:46:21.052Z,22.36
2022-08-30T05:48:22.458Z,22.37
2022-08-30T05:50:24.243Z,22.36
2022-08-30T05:52:25.571Z,22.35
2022-08-30T05:54:26.896Z,22.34
2022-08-30T05:56:28.282Z,22.34
2022-08-30T05:58:29.652Z,22.39
2022-08-30T06:00:31.042Z,22.44
2022-08-30T06:02:32.369Z,22.43
2022-08-30T06:04:33.788Z,22.39
2022-08-30T06:06:35.498Z,22.35
2022-08-30T06:08:36.843Z,22.32
2022-08-30T06:10:38.212Z,22.30
2022-08-30T06:12:39.583Z,22.31
2022-08-30T06:14:40.911Z,22.34
2022-08-30T06:16:45.698Z,22.51
2022-08-30T06:18:47.263Z,22.61
2022-08-30T06:20:50.277Z,22.58
2022-08-30T06:22:52.292Z,22.51
2022-08-30T06:24:57.438Z,22.46
2022-08-30T06:26:59.249Z,22.41
2022-08-30T06:29:00.635Z,22.39
2022-08-30T06:31:01.981Z,22.37
2022-08-30T06:33:03.327Z,22.37
2022-08-30T06:35:05.043Z,22.38
2022-08-30T06:37:06.355Z,22.45
2022-08-30T06:39:07.715Z,22.43
2022-08-30T06:41:09.111Z,22.41
2022-08-30T06:43:10.444Z,22.34
2022-08-30T06:45:11.847Z,22.28
2022-08-30T06:47:13.173Z,22.23
2022-08-30T06:49:14.694Z,22.19
2022-08-30T06:51:16.130Z,22.16
2022-08-30T06:53:17.626Z,22.14
2022-08-30T06:55:19.007Z,22.11
2022-08-30T06:57:20.319Z,22.09
2022-08-30T06:59:21.648Z,22.07
2022-08-30T07:01:23.213Z,22.06
2022-08-30T07:03:27.272Z,22.05
2022-08-30T07:05:28.615Z,22.04
2022-08-30T07:07:29.948Z,22.03
2022-08-30T07:11:37.623Z,22.01
2022-08-30T07:13:39.052Z,21.99
2022-08-30T07:15:40.423Z,21.99
2022-08-30T07:18:00.584Z,21.98
2022-08-30T07:20:01.907Z,21.97
2022-08-30T07:22:03.220Z,21.97
2022-08-30T07:24:04.602Z,21.96
2022-08-30T07:26:10.063Z,21.95
2022-08-30T07:28:11.870Z,21.95
2022-08-30T07:30:13.393Z,21.96
2022-08-30T07:32:14.735Z,21.85
2022-08-30T07:34:16.183Z,21.79
2022-08-30T07:36:17.794Z,21.91
2022-08-30T07:38:19.111Z,22.47
2022-08-30T07:40:20.496Z,22.67
2022-08-30T07:42:21.858Z,23.09
2022-08-30T07:44:25.143Z,23.09
2022-08-30T07:46:27.068Z,23.04
2022-08-30T07:48:28.452Z,23.36
2022-08-30T07:50:29.795Z,23.60
2022-08-30T07:52:31.219Z,23.54
2022-08-30T07:54:32.613Z,23.55
2022-08-30T07:56:34.239Z,23.73
2022-08-30T07:58:37.588Z,23.58
2022-08-30T08:00:39.022Z,23.56
2022-08-30T08:02:41.896Z,23.62
2022-08-30T08:04:43.958Z,23.59
2022-08-30T08:06:45.400Z,23.60
2022-08-30T08:08:46.756Z,23.58
2022-08-30T08:10:48.092Z,23.61
2022-08-30T08:12:49.707Z,23.64
2022-08-30T08:14:53.472Z,23.88
2022-08-30T08:16:54.811Z,24.03
2022-08-30T08:18:56.138Z,24.09
2022-08-30T08:20:57.463Z,24.07
2022-08-30T08:22:58.834Z,23.64
2022-08-30T08:25:00.158Z,23.65
2022-08-30T08:27:01.462Z,23.74
2022-08-30T08:29:02.997Z,23.79
2022-08-30T08:31:04.412Z,23.84
2022-08-30T08:33:06.211Z,23.88
2022-08-30T08:35:07.566Z,23.93
2022-08-30T08:37:08.909Z,23.96
2022-08-30T08:39:10.271Z,23.99
2022-08-30T08:41:11.675Z,24.29
2022-08-30T08:43:13.048Z,24.32
2022-08-30T08:45:14.392Z,24.45
2022-08-30T08:47:15.936Z,24.35
2022-08-30T08:49:17.269Z,24.26
2022-08-30T08:51:37.103Z,24.23
2022-08-30T08:53:46.873Z,24.20
2022-08-30T08:55:48.473Z,24.26
2022-08-30T08:57:49.998Z,24.32
2022-08-30T08:59:54.462Z,24.60
2022-08-30T09:01:58.165Z,24.59
2022-08-30T09:03:59.650Z,24.60
2022-08-30T09:06:00.986Z,24.67
2022-08-30T09:08:04.567Z,24.39
2022-08-30T09:10:09.060Z,24.26
2022-08-30T09:12:10.386Z,24.44
2022-08-30T09:14:11.719Z,24.58
2022-08-30T09:16:22.409Z,24.67
2022-08-30T09:18:23.922Z,24.53
2022-08-30T09:20:25.230Z,24.53
2022-08-30T09:22:26.856Z,24.49
2022-08-30T09:24:28.177Z,24.28
2022-08-30T09:26:29.702Z,24.03
2022-08-30T09:28:31.019Z,23.88
2022-08-30T09:30:32.392Z,23.77
2022-08-30T09:32:33.808Z,23.77
2022-08-30T09:34:35.106Z,23.75
2022-08-30T09:36:36.432Z,23.73
2022-08-30T09:38:37.813Z,23.71
2022-08-30T09:40:39.236Z,23.73
2022-08-30T09:42:40.858Z,23.83
2022-08-30T09:44:42.218Z,24.20
2022-08-30T09:46:43.591Z,24.27
2022-08-30T09:51:04.183Z,24.78
2022-08-30T09:53:09.902Z,24.78
2022-08-30T09:55:11.284Z,24.69
2022-08-30T09:57:13.223Z,24.32
2022-08-30T09:59:14.648Z,24.05
2022-08-30T10:01:16.129Z,23.96
2022-08-30T10:05:36.622Z,23.68
2022-08-30T10:07:37.958Z,23.67
2022-08-30T10:09:40.926Z,23.69
2022-08-30T10:11:43.767Z,23.75
2022-08-30T10:13:45.184Z,23.70
2022-08-30T10:15:46.523Z,23.69
2022-08-30T10:17:48.729Z,23.62
2022-08-30T10:19:50.053Z,23.53
2022-08-30T10:21:51.409Z,23.79
2022-08-30T10:23:53.511Z,24.13
2022-08-30T10:25:54.942Z,24.45
2022-08-30T10:27:56.434Z,24.59
2022-08-30T10:29:59.464Z,24.66
2022-08-30T10:32:01.784Z,24.74
2022-08-30T10:34:03.144Z,24.79
2022-08-30T10:36:04.507Z,24.74
2022-08-30T10:38:11.760Z,24.82
2022-08-30T10:40:31.702Z,24.86
2022-08-30T10:42:36.670Z,24.87
2022-08-30T10:44:41.334Z,24.66
2022-08-30T10:46:42.727Z,24.25
2022-08-30T10:48:47.503Z,24.05
2022-08-30T10:50:48.970Z,23.93
2022-08-30T10:52:50.487Z,23.91
2022-08-30T10:54:51.837Z,23.96
2022-08-30T10:56:53.159Z,23.92
2022-08-30T10:58:54.961Z,23.99
2022-08-30T11:00:56.347Z,24.03
2022-08-30T11:02:57.785Z,24.01
2022-08-30T11:05:00.736Z,23.90
2022-08-30T11:07:02.965Z,23.81
2022-08-30T11:09:05.447Z,23.76
2022-08-30T11:11:06.783Z,23.83
2022-08-30T11:13:14.379Z,23.92
2022-08-30T11:15:15.774Z,23.97
2022-08-30T11:17:17.117Z,24.12
2022-08-30T11:19:18.970Z,24.25
2022-08-30T11:21:22.046Z,24.12
2022-08-30T11:23:23.566Z,23.99
2022-08-30T11:25:25.809Z,23.84
2022-08-30T11:27:27.131Z,23.72
2022-08-30T11:29:30.037Z,23.60
2022-08-30T11:31:32.987Z,23.58
2022-08-30T11:33:34.298Z,23.66
2022-08-30T11:35:35.612Z,23.77
2022-08-30T11:37:37.440Z,23.73
2022-08-30T11:39:38.784Z,23.67
2022-08-30T11:41:42.605Z,23.59
2022-08-30T11:43:45.959Z,23.50
2022-08-30T11:45:47.483Z,23.42
2022-08-30T11:47:51.009Z,23.46
2022-08-30T11:49:52.440Z,23.53
2022-08-30T11:52:23.650Z,23.49
2022-08-30T11:54:15.394Z,23.40
2022-08-30T11:56:17.091Z,23.35
2022-08-30T11:58:18.966Z,23.36
2022-08-30T12:00:20.278Z,23.40
2022-08-30T12:02:21.713Z,23.33
2022-08-30T12:04:24.623Z,23.26
2022-08-30T12:06:25.942Z,23.23
2022-08-30T12:08:27.977Z,23.25
2022-08-30T12:10:29.763Z,23.30
2022-08-30T12:12:31.102Z,23.38
2022-08-30T12:14:32.518Z,23.45
2022-08-30T12:16:33.875Z,23.40
2022-08-30T12:18:35.831Z,23.41
2022-08-30T12:20:37.162Z,23.31
2022-08-30T12:22:38.842Z,23.24
2022-08-30T12:24:40.263Z,23.19
2022-08-30T12:26:41.571Z,23.13
2022-08-30T12:28:43.521Z,23.10
2022-08-30T12:30:46.530Z,23.08
2022-08-30T12:32:50.712Z,23.05
2022-08-30T12:34:52.331Z,23.04
2022-08-30T12:36:53.746Z,23.02
2022-08-30T12:38:56.451Z,23.02
2022-08-30T12:41:00.734Z,23.02
2022-08-30T12:43:04.241Z,23.04
2022-08-30T12:45:05.559Z,23.08
2022-08-30T12:47:06.870Z,23.08
2022-08-30T12:49:08.179Z,23.06
2022-08-30T12:51:10.952Z,23.04
2022-08-30T12:53:14.101Z,23.06
2022-08-30T12:55:17.576Z,23.13
2022-08-30T12:57:34.896Z,23.20
2022-08-30T12:59:36.722Z,23.30
2022-08-30T13:01:38.826Z,23.28
2022-08-30T13:03:41.496Z,23.22
2022-08-30T13:05:45.533Z,23.15
2022-08-30T13:07:49.111Z,23.09
2022-08-30T13:09:53.678Z,23.05
2022-08-30T13:11:55.041Z,23.03
2022-08-30T13:13:58.275Z,23.00
2022-08-30T13:16:01.474Z,22.98
2022-08-30T13:18:03.581Z,22.95
2022-08-30T13:20:05.774Z,22.92
2022-08-30T13:22:07.427Z,22.90
2022-08-30T13:24:09.023Z,22.89
2022-08-30T13:26:11.496Z,22.91
2022-08-30T13:28:12.911Z,22.93
2022-08-30T13:30:14.632Z,22.92
2022-08-30T13:32:16.202Z,22.89
2022-08-30T13:34:19.084Z,22.91
2022-08-30T13:36:20.498Z,22.93
2022-08-30T13:38:24.423Z,22.92
2022-08-30T13:40:25.827Z,22.91
2022-08-30T13:42:34.668Z,22.87
2022-08-30T13:44:37.768Z,22.85
2022-08-30T13:46:43.141Z,22.84
2022-08-30T13:48:44.658Z,22.88
2022-08-30T13:50:46.588Z,22.97
2022-08-30T13:52:47.927Z,23.03
2022-08-30T13:54:49.800Z,23.00
2022-08-30T13:56:51.548Z,22.93
2022-08-30T13:58:52.899Z,22.89
2022-08-30T14:00:54.263Z,22.86
2022-08-30T14:02:59.855Z,22.81
2022-08-30T14:05:03.213Z,22.77
2022-08-30T14:07:14.097Z,22.76
2022-08-30T14:09:21.055Z,22.72
2022-08-30T14:11:22.938Z,22.70
2022-08-30T14:13:24.560Z,22.68
2022-08-30T14:15:25.866Z,22.68
2022-08-30T14:17:30.390Z,22.68
2022-08-30T14:19:31.796Z,22.63
2022-08-30T14:21:33.200Z,22.62
2022-08-30T14:23:34.540Z,22.62
2022-08-30T14:25:36.026Z,22.61
2022-08-30T14:27:37.891Z,22.60
2022-08-30T14:29:39.352Z,22.59
2022-08-30T14:31:41.029Z,22.58
2022-08-30T14:33:42.367Z,22.58
2022-08-30T14:35:43.699Z,22.57
2022-08-30T14:37:45.319Z,22.58
2022-08-30T14:39:46.663Z,22.58
2022-08-30T14:41:48.087Z,22.58
2022-08-30T14:43:49.395Z,22.58
2022-08-30T14:45:50.716Z,22.56
2022-08-30T14:51:54.843Z,22.53
2022-08-30T14:53:56.331Z,22.52
2022-08-30T14:55:57.690Z,22.51
2022-08-30T14:57:58.998Z,22.49
2022-08-30T15:00:00.746Z,22.47
2022-08-30T15:02:02.081Z,22.46
2022-08-30T15:04:03.650Z,22.46
2022-08-30T15:06:08.563Z,22.44
2022-08-30T15:08:10.484Z,22.43
2022-08-30T15:10:14.731Z,22.42
2022-08-30T15:12:16.050Z,22.40
2022-08-30T15:14:17.393Z,22.42
2022-08-30T15:16:18.743Z,22.40
2022-08-30T15:18:20.150Z,22.42
2022-08-30T15:20:21.495Z,22.40
2022-08-30T15:22:22.868Z,22.39
2022-08-30T15:24:25.021Z,22.39
2022-08-30T15:26:31.363Z,22.39
2022-08-30T15:28:32.724Z,22.38
2022-08-30T15:30:34.156Z,22.37
2022-08-30T15:32:35.587Z,22.38
2022-08-30T15:34:37.658Z,22.36
2022-08-30T15:36:38.976Z,22.36
2022-08-30T15:38:42.243Z,22.36
2022-08-30T15:40:44.643Z,22.40
2022-08-30T15:42:46.843Z,22.43
2022-08-30T15:44:48.163Z,22.45
2022-08-30T15:46:49.592Z,22.47
2022-08-30T15:48:52.021Z,22.47
2022-08-30T15:50:53.368Z,22.47
2022-08-30T15:52:54.692Z,22.47
2022-08-30T15:54:56.307Z,22.45
2022-08-30T15:57:01.452Z,22.40
2022-08-30T15:59:03.040Z,22.42
2022-08-30T16:01:05.633Z,22.42
2022-08-30T16:03:07.084Z,22.41
2022-08-30T16:05:08.473Z,22.41
2022-08-30T16:07:09.802Z,22.40
2022-08-30T16:09:11.512Z,22.40
2022-08-30T16:11:12.909Z,22.40
2022-08-30T16:13:14.283Z,22.38
2022-08-30T16:15:15.678Z,22.37
2022-08-30T16:17:17.365Z,22.36
2022-08-30T16:19:19.639Z,22.34
2022-08-30T16:21:21.007Z,22.34
2022-08-30T16:23:22.338Z,22.33
2022-08-30T16:25:23.735Z,22.33
2022-08-30T16:27:25.100Z,22.32
2022-08-30T16:29:26.407Z,22.31
2022-08-30T16:31:27.821Z,22.30
2022-08-30T16:33:29.167Z,22.29
2022-08-30T16:35:30.479Z,22.29
2022-08-30T16:37:32.230Z,22.26
2022-08-30T16:39:33.558Z,22.25
2022-08-30T16:41:34.884Z,22.23
2022-08-30T16:43:36.295Z,22.22
2022-08-30T16:45:37.603Z,22.22
2022-08-30T16:47:39.283Z,22.20
2022-08-30T16:49:40.606Z,22.18
2022-08-30T16:51:42.158Z,22.16
2022-08-30T16:53:43.527Z,22.14
2022-08-30T16:55:45.034Z,22.14
2022-08-30T16:57:46.611Z,22.12
2022-08-30T16:59:49.535Z,22.13
2022-08-30T17:01:53.847Z,22.11
2022-08-30T17:03:55.863Z,22.10
2022-08-30T17:05:57.570Z,22.10
2022-08-30T17:07:58.879Z,22.08
2022-08-30T17:10:00.291Z,22.08
2022-08-30T17:12:01.611Z,22.06
2022-08-30T17:14:05.244Z,22.06
2022-08-30T17:16:06.614Z,22.05
2022-08-30T17:18:08.018Z,22.05
2022-08-30T17:20:09.547Z,22.02
2022-08-30T17:22:10.909Z,22.02
2022-08-30T17:24:12.479Z,22.01
2022-08-30T17:26:13.832Z,22.01
2022-08-30T17:28:15.171Z,21.99
2022-08-30T17:30:16.555Z,21.98
2022-08-30T17:32:17.873Z,21.98
2022-08-30T17:34:21.867Z,21.97
2022-08-30T17:36:23.556Z,21.96
2022-08-30T17:38:25.572Z,21.95
2022-08-30T17:40:26.903Z,21.95
2022-08-30T17:42:29.717Z,21.94
2022-08-30T17:44:31.278Z,21.94
2022-08-30T17:46:33.704Z,21.92
2022-08-30T17:48:35.383Z,21.92
2022-08-30T17:50:36.743Z,21.91
2022-08-30T17:52:38.078Z,21.91
2022-08-30T17:54:41.014Z,21.90
2022-08-30T17:56:42.364Z,21.90
2022-08-30T17:58:43.709Z,21.89
2022-08-30T18:00:45.041Z,21.88
2022-08-30T18:02:47.029Z,21.87
2022-08-30T18:04:49.259Z,21.87
2022-08-30T18:06:50.643Z,21.86
2022-08-30T18:08:53.183Z,21.84
2022-08-30T18:10:54.499Z,21.83
2022-08-30T18:12:55.823Z,21.82
2022-08-30T18:14:57.143Z,21.83
2022-08-30T18:16:58.498Z,21.82
2022-08-30T18:19:00.107Z,21.81
2022-08-30T18:21:02.115Z,21.80
2022-08-30T18:23:03.619Z,21.79
2022-08-30T18:25:05.092Z,21.78
2022-08-30T18:27:06.421Z,21.79
2022-08-30T18:29:07.747Z,21.79
2022-08-30T18:31:09.935Z,21.78
2022-08-30T18:33:11.249Z,21.78
2022-08-30T18:35:12.586Z,21.75
2022-08-30T18:37:16.579Z,21.75
2022-08-30T18:39:19.042Z,21.74
2022-08-30T18:41:21.903Z,21.75
2022-08-30T18:43:24.727Z,21.74
2022-08-30T18:45:32.244Z,21.74
2022-08-30T18:47:33.731Z,21.73
2022-08-30T18:49:36.420Z,21.73
2022-08-30T18:51:38.039Z,21.72
2022-08-30T18:53:40.451Z,21.71
2022-08-30T18:55:42.403Z,21.71
2022-08-30T18:57:44.666Z,21.71
2022-08-30T18:59:46.046Z,21.70
2022-08-30T19:01:48.791Z,21.69
2022-08-30T19:03:51.110Z,21.69
2022-08-30T19:05:53.913Z,21.68
2022-08-30T19:07:55.385Z,21.69
2022-08-30T19:09:58.920Z,21.66
2022-08-30T19:12:00.893Z,21.66
2022-08-30T19:14:04.631Z,21.67
2022-08-30T19:16:08.381Z,21.66
2022-08-30T19:18:17.524Z,21.65
2022-08-30T19:20:34.748Z,21.64
2022-08-30T19:23:06.174Z,21.64
2022-08-30T19:24:57.361Z,21.64
2022-08-30T19:26:58.671Z,21.63
2022-08-30T19:28:59.982Z,21.62
2022-08-30T19:33:26.103Z,21.61
2022-08-30T19:35:30.295Z,21.61
2022-08-30T19:37:31.808Z,21.60
2022-08-30T19:39:35.664Z,21.60
2022-08-30T19:41:37.555Z,21.59
2022-08-30T19:43:38.910Z,21.59
2022-08-30T19:45:40.233Z,21.58
2022-08-30T19:47:41.647Z,21.58
2022-08-30T19:49:43.068Z,21.57
2022-08-30T19:51:46.569Z,21.57
2022-08-30T19:53:48.498Z,21.55
2022-08-30T19:55:49.829Z,21.57
2022-08-30T19:57:51.190Z,21.55
2022-08-30T19:59:52.614Z,21.54
2022-08-30T20:01:53.947Z,21.54
2022-08-30T20:03:56.772Z,21.54
2022-08-30T20:05:58.122Z,21.54
2022-08-30T20:08:00.535Z,21.53
2022-08-30T20:10:05.303Z,21.51
2022-08-30T20:12:07.174Z,21.52
2022-08-30T20:14:08.488Z,21.52
2022-08-30T20:16:09.835Z,21.52
2022-08-30T20:18:13.575Z,21.51
2022-08-30T20:20:16.147Z,21.50
2022-08-30T20:22:21.891Z,21.49
2022-08-30T20:24:24.005Z,21.50
2022-08-30T20:26:34.909Z,21.48
2022-08-30T20:28:37.190Z,21.48
2022-08-30T20:30:38.648Z,21.49
2022-08-30T20:32:42.499Z,21.48
2022-08-30T20:34:44.270Z,21.48
2022-08-30T20:36:45.630Z,21.48
2022-08-30T20:38:47.602Z,21.48
2022-08-30T20:40:50.247Z,21.48
2022-08-30T20:42:51.975Z,21.47
2022-08-30T20:44:53.283Z,21.47
2022-08-30T20:46:54.590Z,21.47
2022-08-30T20:48:55.991Z,21.47
2022-08-30T20:50:57.348Z,21.46
2022-08-30T20:52:58.664Z,21.46
2022-08-30T20:55:00.361Z,21.44
2022-08-30T20:57:01.997Z,21.44
2022-08-30T20:59:03.605Z,21.44
2022-08-30T21:01:05.197Z,21.43
2022-08-30T21:03:07.770Z,21.43
2022-08-30T21:05:19.102Z,21.42
2022-08-30T21:07:20.452Z,21.42
2022-08-30T21:09:21.854Z,21.43
2022-08-30T21:11:23.328Z,21.42
2022-08-30T21:13:24.699Z,21.42
2022-08-30T21:15:37.345Z,21.41
2022-08-30T21:17:40.187Z,21.45
2022-08-30T21:19:44.149Z,21.45
2022-08-30T21:21:45.566Z,21.45
2022-08-30T21:23:46.874Z,21.48
2022-08-30T21:25:48.818Z,21.90
2022-08-30T21:27:50.247Z,22.14
2022-08-30T21:29:51.641Z,22.28
2022-08-30T21:31:52.957Z,22.39
2022-08-30T21:33:54.300Z,22.46
2022-08-30T21:36:14.208Z,22.51
2022-08-30T21:38:15.550Z,22.58
2022-08-30T21:40:17.471Z,22.63
2022-08-30T21:42:18.905Z,22.92
2022-08-30T21:44:20.280Z,23.23
2022-08-30T21:46:21.663Z,23.40
2022-08-30T21:48:23.314Z,23.32
2022-08-30T21:50:24.621Z,23.16
2022-08-30T21:52:25.956Z,23.03
2022-08-30T21:54:31.365Z,23.10
2022-08-30T21:56:33.003Z,23.08
2022-08-30T21:58:34.899Z,23.08
2022-08-30T22:00:36.221Z,23.27
2022-08-30T22:02:37.593Z,23.34
2022-08-30T22:04:38.956Z,23.26
2022-08-30T22:06:40.288Z,23.39
2022-08-30T22:08:42.026Z,23.47
2022-08-30T22:10:43.406Z,23.54
2022-08-30T22:12:44.733Z,23.62
2022-08-30T22:14:46.067Z,23.48
2022-08-30T22:16:47.904Z,23.70
2022-08-30T22:18:49.282Z,23.52
2022-08-30T22:20:50.643Z,23.73
2022-08-30T22:22:51.978Z,23.55
2022-08-30T22:24:53.315Z,23.48
2022-08-30T22:26:54.635Z,23.46
2022-08-30T22:28:55.999Z,23.66
2022-08-30T22:30:57.315Z,23.54
2022-08-30T22:32:58.671Z,23.48
2022-08-30T22:35:00.051Z,23.47
2022-08-30T22:37:01.402Z,23.57
2022-08-30T22:39:03.139Z,23.91
2022-08-30T22:41:04.917Z,23.72
2022-08-30T22:43:06.231Z,23.70
2022-08-30T22:45:07.598Z,23.56
2022-08-30T22:47:11.559Z,23.49
2022-08-30T22:49:12.910Z,23.51
2022-08-30T22:51:14.266Z,23.44
2022-08-30T22:53:15.584Z,23.02
2022-08-30T22:55:17.048Z,23.19
2022-08-30T22:57:19.891Z,23.42
2022-08-30T22:59:21.235Z,23.56
2022-08-30T23:01:31.721Z,23.45
2022-08-30T23:03:33.077Z,23.44
2022-08-30T23:05:34.399Z,23.80
2022-08-30T23:07:35.739Z,23.56
2022-08-30T23:09:37.062Z,23.80
2022-08-30T23:11:38.378Z,23.77
2022-08-30T23:13:39.679Z,23.76
2022-08-30T23:15:41.012Z,23.90
2022-08-30T23:17:42.395Z,22.61
2022-08-30T23:19:43.810Z,23.86
2022-08-30T23:21:45.175Z,23.89
2022-08-30T23:24:05.154Z,23.71
2022-08-30T23:26:25.151Z,23.59
2022-08-30T23:28:45.051Z,23.81
2022-08-30T23:31:05.004Z,23.91
2022-08-30T23:33:25.245Z,23.69
2022-08-30T23:35:45.144Z,23.49
2022-08-30T23:38:05.132Z,23.21
2022-08-30T23:40:25.204Z,23.54
2022-08-30T23:42:45.572Z,23.85
2022-08-30T23:45:05.450Z,23.85
2022-08-30T23:47:25.391Z,23.98
2022-08-30T23:49:45.254Z,24.00
2022-08-30T23:52:05.242Z,23.79
2022-08-30T23:54:25.232Z,23.67
2022-08-30T23:56:44.978Z,23.67
2022-08-30T23:59:04.880Z,23.61
